Time;durP1;ratioP1;P1;durP2;ratioP2;P2;SDS_P1;SDS_P2;PMS_P1;PMS_P2;Temp;Humidity;BMP_temperature;BMP_pressure;BME280_temperature;BME280_humidity;BME280_pressure;Samples;Min_cycle;Max_cycle;Signal;HPM_P1;HPM_P2
2022/08/20 00:00:35;;;;;;;11.45;4.07;;;;;;;26.73;55.24;99637.81;6174290;23;20031;-70
2022/08/20 00:03:12;;;;;;;19.15;5.25;;;;;;;26.68;55.33;99628.63;6176680;23;20029;-70
2022/08/20 00:05:41;;;;;;;15.20;5.20;;;;;;;26.41;55.57;99598.28;6176258;23;20067;-70
2022/08/20 00:08:08;;;;;;;15.50;5.07;;;;;;;26.63;55.64;99640.41;6177064;23;20690;-70
2022/08/20 00:10:36;;;;;;;12.93;5.00;;;;;;;26.61;55.94;99628.84;6174829;23;20084;-70
2022/08/20 00:13:04;;;;;;;15.80;5.00;;;;;;;26.63;56.15;99618.38;6175881;23;20374;-70
2022/08/20 00:15:31;;;;;;;11.38;5.00;;;;;;;26.51;57.27;99599.22;6174770;23;20001;-70
2022/08/20 00:17:58;;;;;;;16.65;5.15;;;;;;;26.50;57.71;99578.31;6176612;23;20012;-70
2022/08/20 00:20:28;;;;;;;9.80;4.47;;;;;;;26.50;57.64;99581.06;6177832;23;20013;-70
2022/08/20 00:22:55;;;;;;;8.82;4.78;;;;;;;26.51;57.51;99579.97;6178328;23;20009;-69
2022/08/20 00:25:21;;;;;;;14.15;5.60;;;;;;;26.44;57.72;99579.34;6175858;23;20009;-69
2022/08/20 00:27:47;;;;;;;11.52;4.97;;;;;;;26.40;58.13;99580.09;6178559;23;20088;-69
2022/08/20 00:30:13;;;;;;;11.90;4.63;;;;;;;26.36;58.56;99576.19;6176292;23;20033;-69
2022/08/20 00:32:52;;;;;;;14.50;5.10;;;;;;;26.33;58.67;99563.78;6177961;23;20088;-69
2022/08/20 00:35:22;;;;;;;14.02;5.00;;;;;;;26.31;58.78;99554.16;6171341;23;20088;-69
2022/08/20 00:37:47;;;;;;;10.85;4.45;;;;;;;26.29;58.85;99539.81;6177177;23;20040;-69
2022/08/20 00:40:17;;;;;;;15.52;5.60;;;;;;;26.21;58.90;99519.06;6178319;23;20017;-69
2022/08/20 00:42:49;;;;;;;12.25;5.22;;;;;;;26.21;58.89;99512.72;6178855;23;20016;-69
2022/08/20 00:45:17;;;;;;;11.85;4.88;;;;;;;26.08;58.88;99502.97;6178734;23;20036;-69
2022/08/20 00:47:43;;;;;;;17.80;5.25;;;;;;;26.12;58.72;99526.09;6177742;23;20000;-69
2022/08/20 00:50:15;;;;;;;10.77;5.07;;;;;;;26.11;58.87;99527.19;6175678;23;20016;-69
2022/08/20 00:52:44;;;;;;;14.25;5.28;;;;;;;26.12;58.96;99534.34;6177421;23;20005;-69
2022/08/20 00:55:11;;;;;;;14.65;5.03;;;;;;;26.09;58.94;99534.84;6178250;23;20079;-70
2022/08/20 00:57:43;;;;;;;12.48;4.97;;;;;;;26.04;58.85;99550.44;6178290;23;20476;-70
2022/08/20 01:00:17;;;;;;;11.45;4.47;;;;;;;26.06;58.93;99578.53;6178644;23;20361;-70
2022/08/20 01:02:43;;;;;;;11.10;4.15;;;;;;;25.96;59.26;99606.63;6173228;23;20009;-69
2022/08/20 01:05:09;;;;;;;17.58;4.75;;;;;;;25.93;59.37;99620.06;6176789;23;20013;-69
2022/08/20 01:07:36;;;;;;;11.77;4.78;;;;;;;25.96;59.48;99627.81;6177077;23;20028;-69
2022/08/20 01:10:10;;;;;;;11.48;4.68;;;;;;;25.96;59.63;99625.88;6176681;23;20096;-69
2022/08/20 01:12:37;;;;;;;9.07;4.82;;;;;;;25.95;59.59;99626.97;6175634;23;20008;-69
2022/08/20 01:15:04;;;;;;;12.40;4.28;;;;;;;25.85;59.68;99602.06;6178300;23;20460;-69
2022/08/20 01:17:35;;;;;;;12.07;5.35;;;;;;;25.53;59.75;99562.53;6177463;23;20056;-69
2022/08/20 01:20:12;;;;;;;9.48;4.65;;;;;;;25.86;59.84;99614.72;6177690;23;20016;-69
2022/08/20 01:25:44;;;;;;;12.38;4.78;;;;;;;25.84;59.67;99624.31;6177030;23;20099;-69
2022/08/20 01:28:13;;;;;;;18.77;5.20;;;;;;;25.77;59.81;99630.00;6175455;23;20757;-69
2022/08/20 01:30:40;;;;;;;11.70;4.72;;;;;;;25.66;60.14;99632.81;6175640;23;20016;-69
2022/08/20 01:33:06;;;;;;;17.10;5.05;;;;;;;25.57;60.70;99617.81;6177567;23;20020;-69
2022/08/20 01:35:37;;;;;;;12.25;4.93;;;;;;;25.45;60.89;99604.16;6176400;23;20414;-69
2022/08/20 01:38:03;;;;;;;10.13;4.82;;;;;;;25.39;61.53;99604.28;6177032;23;20012;-70
2022/08/20 01:40:49;;;;;;;11.43;5.03;;;;;;;25.32;61.48;99598.97;6176727;23;20001;-69
2022/08/20 01:43:15;;;;;;;13.43;5.20;;;;;;;25.29;61.99;99588.47;6177317;23;20012;-69
2022/08/20 01:45:41;;;;;;;9.68;5.00;;;;;;;25.36;62.09;99600.13;6177187;23;20009;-69
2022/08/20 01:48:07;;;;;;;12.23;4.68;;;;;;;25.30;62.82;99601.09;6177457;23;20000;-69
2022/08/20 01:50:36;;;;;;;12.77;5.10;;;;;;;25.27;63.40;99604.34;6176880;23;20017;-69
2022/08/20 01:53:13;;;;;;;12.30;5.40;;;;;;;25.12;64.20;99600.47;6175460;23;20013;-69
2022/08/20 01:55:39;;;;;;;16.55;5.13;;;;;;;24.75;65.15;99547.91;6177662;23;20013;-69
2022/08/20 01:58:05;;;;;;;11.50;5.32;;;;;;;25.00;65.67;99607.91;6177322;23;20039;-70
2022/08/20 02:00:31;;;;;;;14.07;5.50;;;;;;;24.90;66.40;99610.47;6177157;23;20005;-69
2022/08/20 02:02:56;;;;;;;13.43;5.63;;;;;;;24.91;67.10;99623.09;6174817;23;20043;-69
2022/08/20 02:05:22;;;;;;;13.10;6.05;;;;;;;24.87;68.15;99630.16;6176573;23;20009;-70
2022/08/20 02:07:48;;;;;;;12.02;5.45;;;;;;;24.70;69.11;99604.56;6175430;23;20436;-70
2022/08/20 02:10:16;;;;;;;9.27;5.90;;;;;;;24.74;69.99;99622.22;6175177;23;20357;-70
2022/08/20 02:12:42;;;;;;;9.50;5.90;;;;;;;24.59;70.94;99619.94;6175046;23;20072;-70
2022/08/20 02:15:09;;;;;;;10.77;5.85;;;;;;;24.44;71.72;99608.66;6176632;23;20031;-70
2022/08/20 02:17:36;;;;;;;13.68;5.75;;;;;;;24.48;72.41;99618.06;6176871;23;20012;-70
2022/08/20 02:20:07;;;;;;;16.88;6.28;;;;;;;24.42;72.99;99622.63;6176896;23;20031;-70
2022/08/20 02:22:41;;;;;;;16.73;6.93;;;;;;;24.36;73.63;99614.50;6176559;23;20009;-69
2022/08/20 02:25:09;;;;;;;13.18;6.47;;;;;;;24.30;74.47;99621.78;6175230;23;20013;-70
2022/08/20 02:27:36;;;;;;;13.25;6.85;;;;;;;24.32;75.25;99624.28;6175166;23;20040;-70
2022/08/20 02:30:09;;;;;;;13.43;7.53;;;;;;;24.25;76.27;99646.31;6175235;23;20380;-70
2022/08/20 02:32:36;;;;;;;12.20;7.63;;;;;;;24.20;77.11;99662.66;6176867;23;20072;-70
2022/08/20 02:35:08;;;;;;;18.35;8.68;;;;;;;24.13;77.91;99664.69;6177339;23;20326;-70
2022/08/20 02:37:35;;;;;;;23.25;9.82;;;;;;;24.01;79.15;99652.88;6176922;23;20368;-69
2022/08/20 02:40:01;;;;;;;21.90;10.93;;;;;;;24.07;79.88;99679.34;6175312;23;20001;-70
2022/08/20 02:42:26;;;;;;;18.13;11.10;;;;;;;23.96;80.61;99680.16;6176413;23;20066;-70
2022/08/20 02:44:53;;;;;;;18.58;10.40;;;;;;;23.96;81.09;99684.81;6177147;23;20417;-70
2022/08/20 02:47:18;;;;;;;19.08;11.57;;;;;;;23.82;81.52;99656.75;6177288;23;20025;-70
2022/08/20 02:49:44;;;;;;;21.25;10.68;;;;;;;23.86;82.06;99682.59;6176698;23;20031;-69
2022/08/20 02:52:10;;;;;;;18.88;10.43;;;;;;;23.83;82.52;99682.25;6176851;23;20036;-70
2022/08/20 02:54:35;;;;;;;19.35;10.48;;;;;;;23.61;83.24;99673.75;6176470;23;20417;-70
2022/08/20 02:57:02;;;;;;;17.30;10.48;;;;;;;23.58;83.96;99692.53;6176305;23;20031;-70
2022/08/20 02:59:27;;;;;;;14.23;9.93;;;;;;;23.49;84.06;99683.84;6173787;23;20028;-70
2022/08/20 03:01:53;;;;;;;17.05;10.02;;;;;;;23.51;84.54;99689.06;6176268;23;20045;-70
2022/08/20 03:04:18;;;;;;;18.75;10.13;;;;;;;23.48;85.51;99709.53;6176405;23;20108;-70
2022/08/20 03:06:44;;;;;;;14.48;9.20;;;;;;;23.47;86.60;99707.84;6175606;23;20059;-70
2022/08/20 03:09:09;;;;;;;12.10;9.20;;;;;;;23.44;87.44;99713.78;6176317;23;20058;-70
2022/08/20 03:11:35;;;;;;;15.73;8.85;;;;;;;23.36;87.99;99714.13;6176138;23;20337;-70
2022/08/20 03:14:00;;;;;;;18.33;9.98;;;;;;;23.25;88.60;99711.34;6176578;23;20072;-70
2022/08/20 03:16:26;;;;;;;17.25;10.30;;;;;;;23.38;89.29;99733.88;6176402;23;20005;-70
2022/08/20 03:18:51;;;;;;;15.48;10.30;;;;;;;23.44;90.12;99735.69;6176221;23;20005;-69
2022/08/20 03:21:17;;;;;;;15.95;10.02;;;;;;;23.38;90.74;99735.81;6177043;23;20043;-70
2022/08/20 03:23:43;;;;;;;17.45;10.40;;;;;;;23.34;91.78;99751.84;6174053;23;20049;-69
2022/08/20 03:26:11;;;;;;;17.55;10.77;;;;;;;23.40;92.63;99745.44;6176622;23;20000;-69
2022/08/20 03:28:36;;;;;;;19.08;11.43;;;;;;;23.24;93.22;99739.75;6175833;23;20025;-70
2022/08/20 03:31:03;;;;;;;21.13;11.63;;;;;;;23.40;93.54;99750.91;6176606;23;20429;-69
2022/08/20 03:33:30;;;;;;;14.10;11.30;;;;;;;23.28;94.32;99744.53;6175790;23;20058;-70
2022/08/20 03:35:56;;;;;;;16.27;9.95;;;;;;;23.16;94.74;99737.31;6176163;23;20011;-70
2022/08/20 03:38:23;;;;;;;18.33;11.20;;;;;;;23.13;95.47;99730.41;6176623;23;20008;-70
2022/08/20 03:40:49;;;;;;;17.20;11.20;;;;;;;23.22;94.98;99730.94;6176103;23;20076;-70
2022/08/20 03:43:15;;;;;;;18.92;10.38;;;;;;;23.20;95.42;99717.47;6176420;23;20048;-70
2022/08/20 03:45:43;;;;;;;15.10;9.65;;;;;;;23.19;94.60;99713.06;6173885;23;20009;-70
2022/08/20 03:48:12;;;;;;;16.27;10.40;;;;;;;23.19;94.61;99721.28;6176546;23;20009;-70
2022/08/20 03:50:41;;;;;;;18.48;9.95;;;;;;;23.18;93.98;99722.31;6175874;23;20017;-70
2022/08/20 03:53:11;;;;;;;15.52;9.35;;;;;;;23.21;94.25;99716.41;6177658;23;20436;-70
2022/08/20 03:55:38;;;;;;;17.15;8.98;;;;;;;23.22;93.33;99703.56;6177838;23;20466;-70
2022/08/20 03:58:05;;;;;;;13.43;9.10;;;;;;;23.21;93.75;99690.94;6178912;23;20681;-70
2022/08/20 04:00:47;;;;;;;13.63;8.75;;;;;;;23.22;93.46;99692.63;6176364;23;20345;-70
2022/08/20 04:03:13;;;;;;;13.68;7.88;;;;;;;23.33;94.23;99719.22;6178352;23;20075;-70
2022/08/20 04:05:40;;;;;;;16.48;7.95;;;;;;;23.40;93.93;99734.50;6175768;23;20235;-70
2022/08/20 04:08:17;;;;;;;14.65;8.65;;;;;;;23.38;93.06;99747.56;6178623;23;20369;-69
2022/08/20 04:10:45;;;;;;;17.00;7.85;;;;;;;23.50;92.06;99742.13;6176822;23;20099;-68
2022/08/20 04:13:12;;;;;;;13.10;7.65;;;;;;;23.41;91.87;99735.34;6178527;23;20485;-68
2022/08/20 06:24:29;;;;;;;12.65;7.13;;;;;;;24.53;78.71;99703.16;6100832;22;1342061;-66
2022/08/20 06:26:59;;;;;;;18.20;7.80;;;;;;;24.88;77.44;99749.78;6154725;22;20044;-66
2022/08/20 06:29:26;;;;;;;15.95;6.78;;;;;;;24.94;77.43;99768.88;6154680;22;20008;-65
2022/08/20 06:31:51;;;;;;;13.88;6.70;;;;;;;24.98;77.10;99772.00;6128850;23;20001;-65
2022/08/20 06:34:17;;;;;;;15.73;6.38;;;;;;;25.03;76.34;99783.91;6155253;22;20347;-65
2022/08/20 06:36:45;;;;;;;14.80;7.45;;;;;;;25.10;75.71;99794.75;6154792;22;20009;-66
2022/08/20 06:39:12;;;;;;;13.85;6.68;;;;;;;25.08;75.32;99794.19;6128717;23;20024;-66
2022/08/20 06:41:38;;;;;;;9.90;6.32;;;;;;;25.19;74.72;99826.25;6154419;23;20013;-65
2022/08/20 06:44:06;;;;;;;16.90;7.50;;;;;;;25.24;74.55;99859.31;6154711;23;20518;-65
2022/08/20 06:46:35;;;;;;;14.13;6.55;;;;;;;25.30;74.11;99891.28;6154709;23;20012;-65
2022/08/20 06:49:03;;;;;;;15.02;6.60;;;;;;;25.31;73.98;99893.00;6154413;23;20009;-66
2022/08/20 06:51:29;;;;;;;13.10;6.68;;;;;;;25.36;74.80;99904.94;6154850;23;20080;-66
2022/08/20 06:53:55;;;;;;;16.05;7.35;;;;;;;25.25;76.56;99861.81;6148268;23;19993;-65
2022/08/20 06:56:20;;;;;;;16.55;7.25;;;;;;;25.26;77.22;99890.94;6154761;22;20306;-66
2022/08/20 06:58:46;;;;;;;21.05;7.60;;;;;;;25.27;77.16;99922.81;6153943;23;20012;-65
2022/08/20 07:01:12;;;;;;;16.08;8.07;;;;;;;25.22;77.95;99930.09;6153948;23;20062;-65
2022/08/20 07:03:41;;;;;;;15.45;7.50;;;;;;;25.20;78.40;99938.56;6154034;23;20014;-65
2022/08/20 07:06:07;;;;;;;20.10;8.40;;;;;;;25.17;79.11;99929.97;6153951;23;20005;-65
2022/08/20 07:08:34;;;;;;;18.15;8.65;;;;;;;25.12;78.37;99930.66;6153758;23;20005;-65
2022/08/20 07:11:00;;;;;;;16.05;8.07;;;;;;;25.04;77.74;99924.69;6153187;23;20017;-65
2022/08/20 07:13:27;;;;;;;25.95;9.35;;;;;;;25.08;76.49;99921.25;6152903;23;20338;-64
2022/08/20 07:15:53;;;;;;;16.98;8.88;;;;;;;24.94;77.24;99933.53;6127498;23;20009;-65
2022/08/20 07:18:18;;;;;;;19.95;8.13;;;;;;;24.90;77.06;99940.56;6154400;23;20024;-64
2022/08/20 07:20:44;;;;;;;12.30;8.05;;;;;;;24.77;76.97;99942.69;6154380;23;20453;-64
2022/08/20 07:23:13;;;;;;;15.43;8.18;;;;;;;24.77;76.52;99954.50;6165625;23;20070;-65
2022/08/20 07:25:40;;;;;;;13.00;8.38;;;;;;;24.83;76.15;99978.25;6177069;23;20432;-65
2022/08/20 07:28:12;;;;;;;20.35;8.98;;;;;;;24.90;75.57;99991.88;6176759;23;20100;-65
2022/08/20 07:33:22;;;;;;;21.02;9.20;;;;;;;24.92;78.64;99984.25;6176824;23;20012;-63
2022/08/20 07:35:47;;;;;;;20.77;8.30;;;;;;;24.86;81.43;99976.94;6177024;23;20009;-64
2022/08/20 07:38:23;;;;;;;17.48;7.47;;;;;;;24.74;82.18;99990.63;6176613;23;20009;-64
2022/08/20 07:40:50;;;;;;;14.95;6.10;;;;;;;24.62;80.19;100008.06;6177020;23;20016;-65
2022/08/20 07:43:15;;;;;;;19.67;5.63;;;;;;;24.41;80.49;100029.44;6176787;23;20080;-65
2022/08/20 07:45:41;;;;;;;20.48;5.90;;;;;;;24.27;81.13;100036.19;6177173;23;20040;-65
2022/08/20 07:48:10;;;;;;;18.15;5.72;;;;;;;24.10;82.85;100047.97;6176515;23;20333;-67
2022/08/20 07:50:36;;;;;;;16.38;5.35;;;;;;;23.91;82.68;100052.59;6176733;23;20079;-66
2022/08/20 07:53:02;;;;;;;19.10;5.10;;;;;;;23.86;83.42;100046.13;6176279;23;20005;-66
2022/08/20 07:55:29;;;;;;;20.80;4.45;;;;;;;23.64;83.97;100006.53;6150540;23;20714;-66
2022/08/20 07:57:57;;;;;;;10.75;3.63;;;;;;;23.48;85.01;100013.44;6176781;23;20013;-67
2022/08/20 08:00:24;;;;;;;13.65;3.50;;;;;;;23.10;86.47;100036.47;6177769;23;20001;-66
2022/08/20 08:02:51;;;;;;;9.23;4.35;;;;;;;22.87;87.68;100047.16;6151684;23;20047;-66
2022/08/20 08:05:17;;;;;;;16.23;4.85;;;;;;;22.68;90.31;100016.13;6177631;23;20009;-66
2022/08/20 08:07:44;;;;;;;15.00;5.47;;;;;;;22.57;93.24;99977.72;6150995;23;20012;-66
2022/08/20 08:10:14;;;;;;;15.70;5.95;;;;;;;22.44;93.25;99948.53;6176778;23;20461;-67
2022/08/20 08:12:43;;;;;;;14.48;4.60;;;;;;;22.32;93.75;99906.56;6150061;23;20317;-66
2022/08/20 08:15:14;;;;;;;16.88;5.40;;;;;;;22.27;96.02;99907.22;6174066;23;20001;-66
2022/08/20 08:17:40;;;;;;;16.33;5.32;;;;;;;22.22;97.20;99917.16;6147789;23;20036;-66
2022/08/20 08:20:07;;;;;;;15.65;4.90;;;;;;;22.15;97.12;99908.97;6148415;23;20089;-65
2022/08/20 08:22:33;;;;;;;10.90;5.35;;;;;;;22.01;98.54;99885.53;6174173;23;20067;-66
2022/08/20 08:38:18;;;;;;;12.88;4.82;;;;;;;22.07;97.44;99812.78;5125718;27;20382;-67
2022/08/20 08:40:44;;;;;;;9.25;4.20;;;;;;;22.01;97.16;99792.66;5124526;28;20032;-66
2022/08/20 08:43:12;;;;;;;11.73;4.25;;;;;;;21.99;97.35;99789.31;5126147;28;20072;-66
2022/08/20 08:45:44;;;;;;;11.27;4.07;;;;;;;21.91;97.13;99781.41;5126143;27;20031;-66
2022/08/20 08:48:15;;;;;;;12.43;3.92;;;;;;;21.85;97.78;99774.09;5124994;27;20038;-67
2022/08/20 08:50:44;;;;;;;10.02;3.80;;;;;;;21.80;98.35;99795.72;5124601;27;20447;-65
2022/08/20 08:53:17;;;;;;;11.68;4.68;;;;;;;21.74;98.35;99796.59;5123370;27;20027;-66
2022/08/20 08:55:43;;;;;;;8.32;3.75;;;;;;;21.67;99.08;99790.31;5122482;28;20018;-66
2022/08/20 08:58:09;;;;;;;14.75;3.80;;;;;;;21.64;99.73;99785.28;5125523;27;20047;-67
2022/08/20 09:00:35;;;;;;;9.75;3.25;;;;;;;21.66;98.47;99782.34;5123925;28;20110;-67
2022/08/20 09:03:16;;;;;;;7.53;3.33;;;;;;;21.65;99.44;99786.16;5123707;28;20172;-67
2022/08/20 09:05:51;;;;;;;11.02;3.35;;;;;;;21.64;99.78;99792.66;5125185;27;20023;-67
2022/08/20 09:08:23;;;;;;;5.95;3.35;;;;;;;21.70;100.00;99794.53;5125337;27;20030;-67
2022/08/20 09:10:49;;;;;;;9.95;3.00;;;;;;;21.80;99.70;99789.47;5125359;27;20023;-67
2022/08/20 09:13:14;;;;;;;6.72;2.83;;;;;;;21.79;98.98;99791.34;5123776;28;20029;-66
2022/08/20 09:15:40;;;;;;;9.05;2.90;;;;;;;21.82;99.00;99781.88;5125576;27;20095;-66
2022/08/20 09:18:05;;;;;;;10.00;2.92;;;;;;;21.91;99.12;99775.94;5123999;28;20032;-66
2022/08/20 09:20:31;;;;;;;8.13;3.25;;;;;;;21.92;99.01;99774.03;5124302;27;20015;-66
2022/08/20 09:22:57;;;;;;;10.23;3.22;;;;;;;21.94;99.95;99766.47;5124838;27;20481;-65
2022/08/20 09:25:23;;;;;;;7.57;3.30;;;;;;;21.98;99.24;99771.25;5123720;27;20243;-66
2022/08/20 09:27:48;;;;;;;10.23;3.33;;;;;;;22.00;99.21;99771.03;5106551;28;20024;-66
2022/08/20 09:30:15;;;;;;;7.00;3.47;;;;;;;22.06;99.20;99781.09;5104349;28;20039;-65
2022/08/20 09:32:42;;;;;;;8.32;3.67;;;;;;;22.09;100.00;99777.91;5122401;28;20031;-65
2022/08/20 09:35:08;;;;;;;13.88;3.63;;;;;;;22.15;99.94;99782.47;5123647;28;20023;-65
2022/08/20 09:37:34;;;;;;;8.30;3.78;;;;;;;22.24;98.87;99784.72;5120456;27;20039;-65
2022/08/20 09:40:00;;;;;;;10.48;4.20;;;;;;;22.28;98.79;99799.59;5111328;27;20099;-66
2022/08/20 09:42:29;;;;;;;11.10;4.65;;;;;;;22.30;99.81;99802.97;5108892;28;20499;-66
2022/08/20 09:44:55;;;;;;;13.50;3.88;;;;;;;22.38;99.72;99803.75;5110158;28;20024;-66
2022/08/20 09:47:21;;;;;;;9.65;3.83;;;;;;;22.45;98.70;99820.91;5110819;28;20035;-66
2022/08/20 09:49:47;;;;;;;12.05;3.58;;;;;;;22.52;98.10;99817.09;5110904;28;20024;-66
2022/08/20 09:52:25;;;;;;;8.32;4.05;;;;;;;22.56;97.93;99828.41;5110717;28;20041;-65
2022/08/20 09:54:54;;;;;;;12.35;4.20;;;;;;;22.67;97.25;99827.69;5110844;28;20374;-66
2022/08/20 09:57:20;;;;;;;8.88;3.85;;;;;;;22.67;97.37;99814.88;5110408;28;20023;-66
2022/08/20 09:59:52;;;;;;;10.43;4.72;;;;;;;22.77;98.13;99820.66;5110589;28;20468;-66
2022/08/20 10:02:17;;;;;;;13.60;4.60;;;;;;;22.72;97.47;99820.47;5110548;27;20073;-66
2022/08/20 10:04:43;;;;;;;7.60;4.18;;;;;;;22.84;98.56;99829.63;5110800;28;20077;-65
2022/08/20 10:07:09;;;;;;;10.95;3.75;;;;;;;22.89;98.07;99837.97;5109980;28;20631;-66
2022/08/20 10:09:36;;;;;;;11.65;3.92;;;;;;;22.98;98.32;99844.00;5111139;28;20050;-65
2022/08/20 10:12:02;;;;;;;11.20;3.72;;;;;;;22.96;96.94;99838.75;5110094;28;20034;-65
2022/08/20 10:14:28;;;;;;;10.93;4.07;;;;;;;23.04;95.51;99848.56;5109908;28;20243;-65
2022/08/20 10:16:58;;;;;;;10.23;3.35;;;;;;;23.16;94.46;99876.84;5108618;28;20034;-65
2022/08/20 10:19:24;;;;;;;17.65;4.43;;;;;;;23.13;94.29;99900.06;5106962;28;20114;-65
2022/08/20 10:21:51;;;;;;;11.48;4.03;;;;;;;23.12;94.76;99903.81;5108069;28;20509;-65
2022/08/20 10:24:17;;;;;;;9.25;3.97;;;;;;;23.17;94.88;99908.63;5104818;28;20025;-64
2022/08/20 10:26:43;;;;;;;10.55;3.70;;;;;;;23.08;95.89;99905.34;5108846;28;20027;-64
2022/08/20 10:29:09;;;;;;;9.20;3.80;;;;;;;23.07;96.36;99898.22;5109089;28;20032;-65
2022/08/20 10:31:34;;;;;;;10.45;4.03;;;;;;;23.08;95.99;99905.34;5108491;28;20087;-64
2022/08/20 10:34:00;;;;;;;14.35;4.28;;;;;;;23.13;94.83;99912.88;5108793;28;20100;-64
2022/08/20 10:36:25;;;;;;;12.45;4.35;;;;;;;23.12;96.26;99911.22;5110008;28;20063;-65
2022/08/20 10:38:51;;;;;;;10.98;4.55;;;;;;;23.20;96.08;99917.22;5110152;28;20027;-64
2022/08/20 10:41:16;;;;;;;7.03;3.58;;;;;;;23.16;96.93;99918.75;5109589;28;20019;-64
2022/08/20 10:43:42;;;;;;;13.63;4.30;;;;;;;23.16;98.00;99932.44;5109234;28;20130;-64
2022/08/20 10:46:07;;;;;;;11.10;3.92;;;;;;;23.20;99.60;99919.97;5109745;28;20050;-63
2022/08/20 10:48:33;;;;;;;12.75;4.70;;;;;;;23.19;99.69;99931.13;5109275;27;20032;-64
2022/08/20 10:50:59;;;;;;;8.85;4.03;;;;;;;23.16;100.00;99923.38;5108549;28;20028;-65
2022/08/20 10:53:25;;;;;;;15.00;4.55;;;;;;;23.13;99.57;99915.63;5109234;28;20028;-65
2022/08/20 10:55:53;;;;;;;13.07;4.90;;;;;;;23.18;100.00;99918.53;5109461;28;20020;-66
2022/08/20 10:58:18;;;;;;;12.77;5.22;;;;;;;23.16;100.00;99920.66;5109425;28;20038;-65
2022/08/20 11:00:44;;;;;;;15.32;5.07;;;;;;;23.19;100.00;99926.50;5107276;28;20023;-67
2022/08/20 11:03:10;;;;;;;14.13;5.35;;;;;;;23.22;99.74;99925.22;5109395;28;20027;-66
2022/08/20 11:05:35;;;;;;;11.70;4.45;;;;;;;23.25;100.00;99925.63;5109598;28;20479;-66
2022/08/20 11:08:02;;;;;;;10.52;4.28;;;;;;;23.27;100.00;99914.44;5109699;27;20088;-67
2022/08/20 11:10:30;;;;;;;13.40;5.43;;;;;;;23.22;100.00;99909.66;5109525;28;20129;-67
2022/08/20 11:12:55;;;;;;;15.85;6.00;;;;;;;23.27;100.00;99918.03;5109475;28;20391;-67
2022/08/20 11:15:22;;;;;;;16.02;5.22;;;;;;;23.29;100.00;99913.19;5109400;28;20815;-66
2022/08/20 11:17:47;;;;;;;15.10;5.10;;;;;;;23.29;100.00;99907.72;5107809;28;20044;-67
2022/08/20 11:20:17;;;;;;;10.85;4.25;;;;;;;23.29;100.00;99894.03;5109294;28;20096;-67
2022/08/20 11:22:42;;;;;;;10.82;4.95;;;;;;;23.24;100.00;99885.63;5109007;28;20035;-66
2022/08/20 11:25:08;;;;;;;11.10;5.20;;;;;;;23.30;100.00;99894.84;5109245;28;20130;-66
2022/08/20 11:27:40;;;;;;;14.48;5.40;;;;;;;23.31;100.00;99880.94;5109226;28;20028;-66
2022/08/20 11:30:08;;;;;;;13.18;5.43;;;;;;;23.31;100.00;99872.72;5109688;28;20027;-67
2022/08/20 11:32:34;;;;;;;15.43;6.18;;;;;;;23.30;100.00;99867.47;5109157;28;20577;-66
2022/08/20 11:35:00;;;;;;;16.85;5.70;;;;;;;23.31;100.00;99860.94;5110010;28;20027;-66
2022/08/20 11:37:26;;;;;;;14.45;5.55;;;;;;;23.31;100.00;99856.28;5109173;28;20177;-66
2022/08/20 11:39:51;;;;;;;11.20;5.22;;;;;;;23.30;100.00;99842.84;5109021;28;20015;-67
2022/08/20 11:42:17;;;;;;;12.82;5.50;;;;;;;23.33;100.00;99837.75;5090019;28;20095;-67
2022/08/20 11:44:42;;;;;;;11.20;5.18;;;;;;;23.34;100.00;99835.88;5099221;28;20027;-66
2022/08/20 11:47:18;;;;;;;10.13;5.30;;;;;;;23.30;100.00;99832.75;5105106;28;20076;-66
2022/08/20 11:49:43;;;;;;;15.63;5.75;;;;;;;23.31;100.00;99834.41;5102867;28;20113;-67
2022/08/20 11:52:09;;;;;;;10.85;5.65;;;;;;;23.33;100.00;99832.28;5101510;28;20077;-66
2022/08/20 11:54:35;;;;;;;13.80;5.22;;;;;;;23.32;100.00;99822.41;5103789;28;20027;-66
2022/08/20 11:57:00;;;;;;;15.77;6.40;;;;;;;23.30;100.00;99818.22;5102710;28;20077;-67
2022/08/20 11:59:26;;;;;;;12.30;5.05;;;;;;;23.31;100.00;99828.94;5101223;28;20522;-66
2022/08/20 12:01:54;;;;;;;13.82;5.63;;;;;;;23.25;100.00;99820.81;5096340;28;20102;-66
2022/08/20 12:04:20;;;;;;;13.07;6.18;;;;;;;23.25;100.00;99835.31;5103139;28;20027;-67
2022/08/20 12:06:45;;;;;;;10.50;5.50;;;;;;;23.31;100.00;99848.09;5099283;28;20136;-66
2022/08/20 12:09:11;;;;;;;12.13;4.93;;;;;;;23.23;100.00;99842.94;5101007;28;20024;-66
2022/08/20 12:11:47;;;;;;;13.77;6.22;;;;;;;23.28;100.00;99848.53;5105240;28;20039;-65
2022/08/20 12:14:12;;;;;;;9.98;5.43;;;;;;;23.31;100.00;99852.75;5109887;28;20034;-66
2022/08/20 12:16:38;;;;;;;12.00;6.22;;;;;;;23.28;100.00;99845.81;5105533;28;20035;-65
2022/08/20 12:19:03;;;;;;;13.98;6.18;;;;;;;23.26;100.00;99841.63;5105971;28;20502;-67
2022/08/20 12:21:29;;;;;;;10.10;5.55;;;;;;;23.28;100.00;99834.03;5103682;28;20073;-67
2022/08/20 12:23:54;;;;;;;10.10;5.60;;;;;;;23.26;100.00;99834.25;5104642;28;20043;-66
2022/08/20 12:26:20;;;;;;;14.63;6.75;;;;;;;23.27;100.00;99826.88;5100614;28;20462;-66
2022/08/20 12:28:45;;;;;;;9.98;6.40;;;;;;;23.24;100.00;99811.75;5100535;28;20028;-66
2022/08/20 12:31:11;;;;;;;14.52;6.97;;;;;;;23.28;100.00;99812.97;5103372;27;20031;-66
2022/08/20 12:33:36;;;;;;;9.55;6.15;;;;;;;23.22;100.00;99804.81;5103716;28;20027;-67
2022/08/20 12:36:02;;;;;;;11.70;7.18;;;;;;;23.24;100.00;99808.16;5100547;28;20083;-66
2022/08/20 12:38:27;;;;;;;12.05;7.07;;;;;;;23.31;100.00;99819.91;5103448;28;20032;-66
2022/08/20 12:40:53;;;;;;;11.70;6.85;;;;;;;23.30;100.00;99826.41;5102150;27;20521;-66
2022/08/20 12:43:18;;;;;;;14.23;6.95;;;;;;;23.30;100.00;99834.63;5102897;28;20060;-67
2022/08/20 12:45:44;;;;;;;10.38;6.15;;;;;;;23.27;100.00;99838.66;5103058;27;20037;-66
2022/08/20 12:48:12;;;;;;;10.50;6.90;;;;;;;23.20;100.00;99848.81;5103516;28;20032;-67
2022/08/20 12:50:40;;;;;;;11.25;8.00;;;;;;;23.21;100.00;99855.16;5103161;28;20077;-66
2022/08/20 12:53:06;;;;;;;15.45;7.40;;;;;;;23.21;100.00;99847.75;5102421;27;20042;-67
2022/08/20 12:55:32;;;;;;;12.43;7.45;;;;;;;23.17;100.00;99854.75;5101034;28;20078;-66
2022/08/20 12:58:01;;;;;;;14.20;6.97;;;;;;;23.20;100.00;99862.50;5102637;27;20131;-66
2022/08/20 13:00:36;;;;;;;15.75;6.72;;;;;;;23.17;100.00;99854.75;5103652;28;20027;-67
2022/08/20 13:03:04;;;;;;;15.95;8.95;;;;;;;23.22;100.00;99852.19;5100889;28;20031;-66
2022/08/20 13:05:31;;;;;;;17.50;8.57;;;;;;;23.32;100.00;99855.25;5103472;28;20043;-66
2022/08/20 13:07:58;;;;;;;18.50;9.07;;;;;;;23.37;100.00;99854.53;5102876;27;20031;-67
2022/08/20 13:10:30;;;;;;;16.23;8.52;;;;;;;23.45;100.00;99855.09;5102854;28;20023;-66
2022/08/20 13:12:55;;;;;;;18.73;8.68;;;;;;;23.51;100.00;99854.16;5103229;27;20031;-66
2022/08/20 13:15:22;;;;;;;10.27;7.15;;;;;;;23.56;100.00;99848.00;5107031;28;20073;-66
2022/08/20 13:17:53;;;;;;;11.80;7.65;;;;;;;23.58;100.00;99833.03;5104626;28;20042;-65
2022/08/20 13:20:19;;;;;;;15.95;7.68;;;;;;;23.61;100.00;99834.47;5105838;28;20027;-66
2022/08/20 13:22:45;;;;;;;14.35;7.72;;;;;;;23.66;100.00;99832.69;5105786;27;20035;-65
2022/08/20 13:25:14;;;;;;;13.38;6.93;;;;;;;23.78;100.00;99838.22;5106682;28;20030;-65
2022/08/20 13:27:42;;;;;;;15.70;6.68;;;;;;;23.79;98.47;99826.19;5106694;27;20381;-65
2022/08/20 13:30:14;;;;;;;10.50;6.57;;;;;;;23.76;97.44;99816.56;5106754;28;20473;-65
2022/08/20 13:32:40;;;;;;;13.93;7.03;;;;;;;23.85;97.56;99820.66;5106629;28;20069;-65
2022/08/20 13:35:06;;;;;;;10.85;6.72;;;;;;;23.89;97.95;99824.59;5105733;27;20783;-65
2022/08/20 13:37:32;;;;;;;14.65;7.63;;;;;;;23.92;98.57;99813.16;5106366;28;20053;-65
2022/08/20 13:39:58;;;;;;;15.82;7.57;;;;;;;23.97;97.92;99799.66;5105536;27;20124;-65
2022/08/20 13:42:25;;;;;;;12.88;7.72;;;;;;;23.99;96.66;99788.47;5106408;28;20114;-65
2022/08/20 13:44:51;;;;;;;10.80;6.80;;;;;;;24.00;94.57;99788.22;5103956;28;20031;-65
2022/08/20 13:47:20;;;;;;;9.10;6.30;;;;;;;24.02;94.66;99783.31;5106234;28;20120;-65
2022/08/20 13:49:47;;;;;;;12.38;6.90;;;;;;;24.06;95.50;99778.22;5103095;28;20047;-66
2022/08/20 13:52:13;;;;;;;9.45;6.53;;;;;;;24.06;94.88;99784.53;5106113;28;20031;-64